sensor_id;sensor_type;location;lat;lon;timestamp;P1;durP1;ratioP1;P2;durP2;ratioP2
27412;SDS011;14871;52.702;5.230;2023-02-28T00:00:12;6.80;;;2.35;;
27412;SDS011;14871;52.702;5.230;2023-02-28T00:02:39;10.68;;;3.53;;
27412;SDS011;14871;52.702;5.230;2023-02-28T00:05:06;7.97;;;2.42;;
27412;SDS011;14871;52.702;5.230;2023-02-28T00:07:33;7.75;;;2.72;;
27412;SDS011;14871;52.702;5.230;2023-02-28T00:09:59;7.85;;;3.20;;
27412;SDS011;14871;52.702;5.230;2023-02-28T00:12:25;6.78;;;2.65;;
27412;SDS011;14871;52.702;5.230;2023-02-28T00:14:51;6.97;;;2.80;;
27412;SDS011;14871;52.702;5.230;2023-02-28T00:17:17;10.65;;;3.30;;
27412;SDS011;14871;52.702;5.230;2023-02-28T00:19:43;7.97;;;2.88;;
27412;SDS011;14871;52.702;5.230;2023-02-28T00:22:08;7.90;;;3.08;;
27412;SDS011;14871;52.702;5.230;2023-02-28T00:24:34;9.45;;;2.85;;
27412;SDS011;14871;52.702;5.230;2023-02-28T00:27:00;6.63;;;3.30;;
27412;SDS011;14871;52.702;5.230;2023-02-28T00:29:25;7.18;;;3.15;;
27412;SDS011;14871;52.702;5.230;2023-02-28T00:31:51;10.23;;;3.67;;
27412;SDS011;14871;52.702;5.230;2023-02-28T00:34:17;9.00;;;3.25;;
27412;SDS011;14871;52.702;5.230;2023-02-28T00:36:42;9.82;;;3.35;;
27412;SDS011;14871;52.702;5.230;2023-02-28T00:39:10;10.85;;;3.65;;
27412;SDS011;14871;52.702;5.230;2023-02-28T00:41:36;8.50;;;3.45;;
27412;SDS011;14871;52.702;5.230;2023-02-28T00:44:02;8.18;;;3.67;;
27412;SDS011;14871;52.702;5.230;2023-02-28T00:46:28;10.25;;;4.10;;
27412;SDS011;14871;52.702;5.230;2023-02-28T00:48:53;8.57;;;3.55;;
27412;SDS011;14871;52.702;5.230;2023-02-28T00:51:19;8.50;;;4.20;;
27412;SDS011;14871;52.702;5.230;2023-02-28T00:53:44;9.70;;;4.00;;
27412;SDS011;14871;52.702;5.230;2023-02-28T00:56:10;8.82;;;3.72;;
27412;SDS011;14871;52.702;5.230;2023-02-28T00:58:36;10.15;;;4.22;;
27412;SDS011;14871;52.702;5.230;2023-02-28T01:01:01;7.60;;;3.92;;
27412;SDS011;14871;52.702;5.230;2023-02-28T01:03:28;12.25;;;4.18;;
27412;SDS011;14871;52.702;5.230;2023-02-28T01:05:53;7.65;;;4.10;;
27412;SDS011;14871;52.702;5.230;2023-02-28T01:08:19;9.48;;;4.50;;
27412;SDS011;14871;52.702;5.230;2023-02-28T01:10:44;8.80;;;3.75;;
27412;SDS011;14871;52.702;5.230;2023-02-28T01:13:12;6.93;;;4.35;;
27412;SDS011;14871;52.702;5.230;2023-02-28T01:15:39;14.63;;;4.30;;
27412;SDS011;14871;52.702;5.230;2023-02-28T01:18:10;8.00;;;3.85;;
27412;SDS011;14871;52.702;5.230;2023-02-28T01:20:36;10.65;;;4.20;;
27412;SDS011;14871;52.702;5.230;2023-02-28T01:23:02;10.02;;;4.28;;
27412;SDS011;14871;52.702;5.230;2023-02-28T01:25:28;7.45;;;3.88;;
27412;SDS011;14871;52.702;5.230;2023-02-28T01:27:53;10.10;;;3.95;;
27412;SDS011;14871;52.702;5.230;2023-02-28T01:30:19;7.55;;;3.90;;
27412;SDS011;14871;52.702;5.230;2023-02-28T01:32:45;11.23;;;4.85;;
27412;SDS011;14871;52.702;5.230;2023-02-28T01:35:10;6.38;;;4.22;;
27412;SDS011;14871;52.702;5.230;2023-02-28T01:37:36;9.30;;;4.00;;
27412;SDS011;14871;52.702;5.230;2023-02-28T01:40:02;9.48;;;4.15;;
27412;SDS011;14871;52.702;5.230;2023-02-28T01:42:28;6.95;;;4.18;;
27412;SDS011;14871;52.702;5.230;2023-02-28T01:45:06;10.60;;;3.38;;
27412;SDS011;14871;52.702;5.230;2023-02-28T01:47:38;11.32;;;4.47;;
27412;SDS011;14871;52.702;5.230;2023-02-28T01:50:07;7.28;;;3.60;;
27412;SDS011;14871;52.702;5.230;2023-02-28T01:52:37;7.72;;;3.80;;
27412;SDS011;14871;52.702;5.230;2023-02-28T01:55:03;11.20;;;3.85;;
27412;SDS011;14871;52.702;5.230;2023-02-28T01:57:32;6.85;;;3.85;;
27412;SDS011;14871;52.702;5.230;2023-02-28T02:00:04;6.78;;;3.90;;
27412;SDS011;14871;52.702;5.230;2023-02-28T02:02:34;8.73;;;4.13;;
27412;SDS011;14871;52.702;5.230;2023-02-28T02:05:09;11.48;;;4.15;;
27412;SDS011;14871;52.702;5.230;2023-02-28T02:07:39;10.95;;;4.22;;
27412;SDS011;14871;52.702;5.230;2023-02-28T02:10:15;9.20;;;3.80;;
27412;SDS011;14871;52.702;5.230;2023-02-28T02:15:34;12.65;;;3.78;;
27412;SDS011;14871;52.702;5.230;2023-02-28T02:18:11;9.88;;;4.72;;
27412;SDS011;14871;52.702;5.230;2023-02-28T02:21:09;13.52;;;5.07;;
27412;SDS011;14871;52.702;5.230;2023-02-28T02:29:36;8.63;;;4.20;;
27412;SDS011;14871;52.702;5.230;2023-02-28T02:35:22;8.85;;;4.40;;
27412;SDS011;14871;52.702;5.230;2023-02-28T02:38:08;9.63;;;4.15;;
27412;SDS011;14871;52.702;5.230;2023-02-28T02:40:47;11.98;;;5.15;;
27412;SDS011;14871;52.702;5.230;2023-02-28T02:43:32;10.48;;;3.88;;
27412;SDS011;14871;52.702;5.230;2023-02-28T02:46:05;12.18;;;4.18;;
27412;SDS011;14871;52.702;5.230;2023-02-28T02:48:37;9.82;;;4.55;;
27412;SDS011;14871;52.702;5.230;2023-02-28T02:51:07;6.47;;;3.95;;
27412;SDS011;14871;52.702;5.230;2023-02-28T02:53:46;7.47;;;4.15;;
27412;SDS011;14871;52.702;5.230;2023-02-28T02:56:19;13.95;;;4.32;;
27412;SDS011;14871;52.702;5.230;2023-02-28T02:58:49;6.80;;;3.58;;
27412;SDS011;14871;52.702;5.230;2023-02-28T03:01:18;12.60;;;3.80;;
27412;SDS011;14871;52.702;5.230;2023-02-28T03:03:54;11.20;;;4.30;;
27412;SDS011;14871;52.702;5.230;2023-02-28T03:06:22;8.98;;;3.92;;
27412;SDS011;14871;52.702;5.230;2023-02-28T03:08:48;8.35;;;3.83;;
27412;SDS011;14871;52.702;5.230;2023-02-28T03:11:14;7.75;;;3.92;;
27412;SDS011;14871;52.702;5.230;2023-02-28T03:27:11;5.53;;;3.33;;
27412;SDS011;14871;52.702;5.230;2023-02-28T03:29:45;6.25;;;3.85;;
27412;SDS011;14871;52.702;5.230;2023-02-28T03:32:36;6.55;;;3.38;;
27412;SDS011;14871;52.702;5.230;2023-02-28T03:37:39;9.07;;;3.53;;
27412;SDS011;14871;52.702;5.230;2023-02-28T03:40:27;10.07;;;3.83;;
27412;SDS011;14871;52.702;5.230;2023-02-28T03:42:59;7.40;;;3.38;;
27412;SDS011;14871;52.702;5.230;2023-02-28T03:45:35;10.38;;;3.42;;
27412;SDS011;14871;52.702;5.230;2023-02-28T03:50:45;7.15;;;3.40;;
27412;SDS011;14871;52.702;5.230;2023-02-28T03:53:17;9.68;;;3.67;;
27412;SDS011;14871;52.702;5.230;2023-02-28T03:55:48;8.15;;;3.95;;
27412;SDS011;14871;52.702;5.230;2023-02-28T03:58:29;7.60;;;4.00;;
27412;SDS011;14871;52.702;5.230;2023-02-28T04:04:31;10.73;;;4.00;;
27412;SDS011;14871;52.702;5.230;2023-02-28T04:07:00;10.63;;;3.53;;
27412;SDS011;14871;52.702;5.230;2023-02-28T04:09:30;7.63;;;3.55;;
27412;SDS011;14871;52.702;5.230;2023-02-28T04:11:56;10.10;;;3.97;;
27412;SDS011;14871;52.702;5.230;2023-02-28T04:14:22;9.93;;;3.20;;
27412;SDS011;14871;52.702;5.230;2023-02-28T04:16:48;7.93;;;3.35;;
27412;SDS011;14871;52.702;5.230;2023-02-28T04:19:13;8.50;;;3.70;;
27412;SDS011;14871;52.702;5.230;2023-02-28T04:21:49;8.20;;;3.63;;
27412;SDS011;14871;52.702;5.230;2023-02-28T04:24:20;7.50;;;4.18;;
27412;SDS011;14871;52.702;5.230;2023-02-28T04:26:48;7.43;;;4.00;;
27412;SDS011;14871;52.702;5.230;2023-02-28T04:29:19;9.10;;;4.43;;
27412;SDS011;14871;52.702;5.230;2023-02-28T04:31:48;9.40;;;4.30;;
27412;SDS011;14871;52.702;5.230;2023-02-28T04:34:15;6.80;;;4.25;;
27412;SDS011;14871;52.702;5.230;2023-02-28T04:36:40;9.95;;;4.40;;
27412;SDS011;14871;52.702;5.230;2023-02-28T04:39:06;5.60;;;3.85;;
27412;SDS011;14871;52.702;5.230;2023-02-28T04:41:32;9.50;;;3.70;;
27412;SDS011;14871;52.702;5.230;2023-02-28T04:43:57;8.57;;;3.88;;
27412;SDS011;14871;52.702;5.230;2023-02-28T04:46:23;11.43;;;4.47;;
27412;SDS011;14871;52.702;5.230;2023-02-28T04:48:49;7.45;;;4.28;;
27412;SDS011;14871;52.702;5.230;2023-02-28T04:51:15;10.68;;;3.88;;
27412;SDS011;14871;52.702;5.230;2023-02-28T04:53:42;9.57;;;3.92;;
27412;SDS011;14871;52.702;5.230;2023-02-28T04:56:10;10.35;;;4.38;;
27412;SDS011;14871;52.702;5.230;2023-02-28T04:58:37;7.40;;;3.78;;
27412;SDS011;14871;52.702;5.230;2023-02-28T05:01:05;6.55;;;3.97;;
27412;SDS011;14871;52.702;5.230;2023-02-28T05:03:41;6.82;;;3.75;;
27412;SDS011;14871;52.702;5.230;2023-02-28T05:06:10;6.80;;;3.92;;
27412;SDS011;14871;52.702;5.230;2023-02-28T05:08:37;12.80;;;4.05;;
27412;SDS011;14871;52.702;5.230;2023-02-28T05:11:03;7.10;;;4.00;;
27412;SDS011;14871;52.702;5.230;2023-02-28T05:13:31;12.13;;;4.43;;
27412;SDS011;14871;52.702;5.230;2023-02-28T05:15:56;8.98;;;4.00;;
27412;SDS011;14871;52.702;5.230;2023-02-28T05:18:22;8.88;;;4.07;;
27412;SDS011;14871;52.702;5.230;2023-02-28T05:20:47;8.30;;;4.10;;
27412;SDS011;14871;52.702;5.230;2023-02-28T05:23:13;10.65;;;4.72;;
27412;SDS011;14871;52.702;5.230;2023-02-28T05:25:40;12.20;;;4.97;;
27412;SDS011;14871;52.702;5.230;2023-02-28T05:28:06;11.68;;;6.22;;
27412;SDS011;14871;52.702;5.230;2023-02-28T05:30:32;12.63;;;7.63;;
27412;SDS011;14871;52.702;5.230;2023-02-28T05:32:58;11.40;;;6.30;;
27412;SDS011;14871;52.702;5.230;2023-02-28T05:35:24;9.38;;;6.50;;
27412;SDS011;14871;52.702;5.230;2023-02-28T05:37:50;8.95;;;6.43;;
27412;SDS011;14871;52.702;5.230;2023-02-28T05:40:16;11.00;;;6.25;;
27412;SDS011;14871;52.702;5.230;2023-02-28T05:42:44;12.05;;;5.40;;
27412;SDS011;14871;52.702;5.230;2023-02-28T05:45:10;9.27;;;6.15;;
27412;SDS011;14871;52.702;5.230;2023-02-28T05:47:35;11.73;;;6.97;;
27412;SDS011;14871;52.702;5.230;2023-02-28T05:50:01;9.38;;;6.30;;
27412;SDS011;14871;52.702;5.230;2023-02-28T05:52:28;11.80;;;6.78;;
27412;SDS011;14871;52.702;5.230;2023-02-28T05:54:55;9.18;;;6.57;;
27412;SDS011;14871;52.702;5.230;2023-02-28T05:57:21;11.85;;;6.85;;
27412;SDS011;14871;52.702;5.230;2023-02-28T05:59:47;9.57;;;6.47;;
27412;SDS011;14871;52.702;5.230;2023-02-28T06:02:13;9.10;;;7.10;;
27412;SDS011;14871;52.702;5.230;2023-02-28T06:04:40;10.30;;;6.85;;
27412;SDS011;14871;52.702;5.230;2023-02-28T06:07:06;10.55;;;7.38;;
27412;SDS011;14871;52.702;5.230;2023-02-28T06:09:32;11.27;;;7.25;;
27412;SDS011;14871;52.702;5.230;2023-02-28T06:11:59;12.25;;;7.80;;
27412;SDS011;14871;52.702;5.230;2023-02-28T06:14:27;14.68;;;6.85;;
27412;SDS011;14871;52.702;5.230;2023-02-28T06:16:53;10.93;;;8.18;;
27412;SDS011;14871;52.702;5.230;2023-02-28T06:19:19;11.98;;;8.30;;
27412;SDS011;14871;52.702;5.230;2023-02-28T06:21:44;12.27;;;8.57;;
27412;SDS011;14871;52.702;5.230;2023-02-28T06:24:17;13.90;;;10.32;;
27412;SDS011;14871;52.702;5.230;2023-02-28T06:26:43;13.07;;;9.10;;
27412;SDS011;14871;52.702;5.230;2023-02-28T06:29:09;15.25;;;10.57;;
27412;SDS011;14871;52.702;5.230;2023-02-28T06:31:34;15.73;;;10.40;;
27412;SDS011;14871;52.702;5.230;2023-02-28T06:34:00;14.75;;;9.95;;
27412;SDS011;14871;52.702;5.230;2023-02-28T06:36:26;16.90;;;11.85;;
27412;SDS011;14871;52.702;5.230;2023-02-28T06:38:51;18.98;;;12.57;;
27412;SDS011;14871;52.702;5.230;2023-02-28T06:41:20;17.75;;;11.57;;
27412;SDS011;14871;52.702;5.230;2023-02-28T06:43:47;13.77;;;10.27;;
27412;SDS011;14871;52.702;5.230;2023-02-28T06:46:13;13.98;;;11.02;;
27412;SDS011;14871;52.702;5.230;2023-02-28T06:48:39;12.25;;;9.85;;
27412;SDS011;14871;52.702;5.230;2023-02-28T06:51:06;10.93;;;9.65;;
27412;SDS011;14871;52.702;5.230;2023-02-28T06:53:33;16.65;;;10.55;;
27412;SDS011;14871;52.702;5.230;2023-02-28T06:56:03;15.15;;;10.80;;
27412;SDS011;14871;52.702;5.230;2023-02-28T06:58:31;12.45;;;10.88;;
27412;SDS011;14871;52.702;5.230;2023-02-28T07:00:56;13.82;;;11.32;;
27412;SDS011;14871;52.702;5.230;2023-02-28T07:03:22;15.40;;;12.32;;
27412;SDS011;14871;52.702;5.230;2023-02-28T07:05:48;18.77;;;13.52;;
27412;SDS011;14871;52.702;5.230;2023-02-28T07:08:15;16.00;;;11.70;;
27412;SDS011;14871;52.702;5.230;2023-02-28T07:10:40;17.02;;;12.02;;
27412;SDS011;14871;52.702;5.230;2023-02-28T07:13:06;16.17;;;11.15;;
27412;SDS011;14871;52.702;5.230;2023-02-28T07:15:33;14.23;;;11.32;;
27412;SDS011;14871;52.702;5.230;2023-02-28T07:17:59;14.10;;;10.93;;
27412;SDS011;14871;52.702;5.230;2023-02-28T07:20:25;14.55;;;10.40;;
27412;SDS011;14871;52.702;5.230;2023-02-28T07:22:51;12.95;;;10.23;;
27412;SDS011;14871;52.702;5.230;2023-02-28T07:25:23;15.45;;;9.85;;
27412;SDS011;14871;52.702;5.230;2023-02-28T07:27:49;13.68;;;9.93;;
27412;SDS011;14871;52.702;5.230;2023-02-28T07:30:15;12.73;;;9.35;;
27412;SDS011;14871;52.702;5.230;2023-02-28T07:32:41;10.68;;;9.23;;
27412;SDS011;14871;52.702;5.230;2023-02-28T07:35:06;11.73;;;9.02;;
27412;SDS011;14871;52.702;5.230;2023-02-28T07:37:32;13.75;;;9.93;;
27412;SDS011;14871;52.702;5.230;2023-02-28T07:40:02;9.75;;;8.63;;
27412;SDS011;14871;52.702;5.230;2023-02-28T07:42:31;9.02;;;7.70;;
27412;SDS011;14871;52.702;5.230;2023-02-28T07:44:57;9.60;;;6.95;;
27412;SDS011;14871;52.702;5.230;2023-02-28T07:47:24;9.38;;;7.20;;
27412;SDS011;14871;52.702;5.230;2023-02-28T07:49:50;10.68;;;7.32;;
27412;SDS011;14871;52.702;5.230;2023-02-28T07:52:15;8.13;;;7.30;;
27412;SDS011;14871;52.702;5.230;2023-02-28T07:54:41;9.23;;;7.50;;
27412;SDS011;14871;52.702;5.230;2023-02-28T07:57:07;8.30;;;7.43;;
27412;SDS011;14871;52.702;5.230;2023-02-28T07:59:32;8.57;;;7.15;;
27412;SDS011;14871;52.702;5.230;2023-02-28T08:01:58;9.90;;;7.70;;
27412;SDS011;14871;52.702;5.230;2023-02-28T08:04:24;11.20;;;7.32;;
27412;SDS011;14871;52.702;5.230;2023-02-28T08:06:49;8.60;;;6.80;;
27412;SDS011;14871;52.702;5.230;2023-02-28T08:09:18;9.52;;;6.75;;
27412;SDS011;14871;52.702;5.230;2023-02-28T08:11:44;7.72;;;6.93;;
27412;SDS011;14871;52.702;5.230;2023-02-28T08:14:09;7.93;;;6.18;;
27412;SDS011;14871;52.702;5.230;2023-02-28T08:16:35;8.35;;;6.68;;
27412;SDS011;14871;52.702;5.230;2023-02-28T08:19:01;7.93;;;7.13;;
27412;SDS011;14871;52.702;5.230;2023-02-28T08:21:26;8.02;;;6.68;;
27412;SDS011;14871;52.702;5.230;2023-02-28T08:23:52;7.32;;;6.22;;
27412;SDS011;14871;52.702;5.230;2023-02-28T08:26:18;9.00;;;7.25;;
27412;SDS011;14871;52.702;5.230;2023-02-28T08:28:44;7.63;;;6.70;;
27412;SDS011;14871;52.702;5.230;2023-02-28T08:31:11;9.25;;;7.25;;
27412;SDS011;14871;52.702;5.230;2023-02-28T08:33:38;9.25;;;7.10;;
27412;SDS011;14871;52.702;5.230;2023-02-28T08:36:05;7.72;;;6.65;;
27412;SDS011;14871;52.702;5.230;2023-02-28T08:38:32;7.15;;;6.15;;
27412;SDS011;14871;52.702;5.230;2023-02-28T08:40:58;7.70;;;6.95;;
27412;SDS011;14871;52.702;5.230;2023-02-28T08:43:25;8.32;;;7.28;;
27412;SDS011;14871;52.702;5.230;2023-02-28T08:45:55;9.80;;;7.10;;
27412;SDS011;14871;52.702;5.230;2023-02-28T08:48:22;8.02;;;6.72;;
27412;SDS011;14871;52.702;5.230;2023-02-28T08:51:01;7.57;;;6.63;;
27412;SDS011;14871;52.702;5.230;2023-02-28T08:53:30;7.97;;;6.88;;
27412;SDS011;14871;52.702;5.230;2023-02-28T08:55:59;8.32;;;7.00;;
27412;SDS011;14871;52.702;5.230;2023-02-28T08:58:27;9.80;;;8.27;;
27412;SDS011;14871;52.702;5.230;2023-02-28T09:00:53;8.00;;;6.85;;
27412;SDS011;14871;52.702;5.230;2023-02-28T09:03:19;10.55;;;8.15;;
27412;SDS011;14871;52.702;5.230;2023-02-28T09:05:52;9.98;;;8.13;;
27412;SDS011;14871;52.702;5.230;2023-02-28T09:08:23;10.15;;;7.60;;
27412;SDS011;14871;52.702;5.230;2023-02-28T09:10:49;8.68;;;7.00;;
27412;SDS011;14871;52.702;5.230;2023-02-28T09:13:15;9.93;;;7.30;;
27412;SDS011;14871;52.702;5.230;2023-02-28T09:15:41;12.02;;;6.53;;
27412;SDS011;14871;52.702;5.230;2023-02-28T09:18:07;11.90;;;6.90;;
27412;SDS011;14871;52.702;5.230;2023-02-28T09:20:33;8.45;;;6.53;;
27412;SDS011;14871;52.702;5.230;2023-02-28T09:22:58;12.57;;;6.88;;
27412;SDS011;14871;52.702;5.230;2023-02-28T09:25:24;9.27;;;6.85;;
27412;SDS011;14871;52.702;5.230;2023-02-28T09:27:50;9.02;;;6.90;;
27412;SDS011;14871;52.702;5.230;2023-02-28T09:30:15;11.73;;;7.40;;
27412;SDS011;14871;52.702;5.230;2023-02-28T09:32:41;9.13;;;6.88;;
27412;SDS011;14871;52.702;5.230;2023-02-28T09:35:07;10.05;;;7.00;;
27412;SDS011;14871;52.702;5.230;2023-02-28T09:37:38;11.18;;;7.22;;
27412;SDS011;14871;52.702;5.230;2023-02-28T09:40:04;9.75;;;7.07;;
27412;SDS011;14871;52.702;5.230;2023-02-28T09:42:31;9.55;;;6.65;;
27412;SDS011;14871;52.702;5.230;2023-02-28T09:45:00;8.27;;;6.53;;
27412;SDS011;14871;52.702;5.230;2023-02-28T09:47:32;9.75;;;6.65;;
27412;SDS011;14871;52.702;5.230;2023-02-28T09:52:38;9.30;;;6.45;;
27412;SDS011;14871;52.702;5.230;2023-02-28T10:04:00;13.05;;;7.10;;
27412;SDS011;14871;52.702;5.230;2023-02-28T10:06:29;9.63;;;6.55;;
27412;SDS011;14871;52.702;5.230;2023-02-28T10:09:11;11.05;;;6.70;;
27412;SDS011;14871;52.702;5.230;2023-02-28T10:11:56;10.32;;;6.63;;
27412;SDS011;14871;52.702;5.230;2023-02-28T10:14:27;9.15;;;6.68;;
27412;SDS011;14871;52.702;5.230;2023-02-28T10:16:55;8.38;;;6.55;;
27412;SDS011;14871;52.702;5.230;2023-02-28T10:24:53;6.65;;;5.50;;
27412;SDS011;14871;52.702;5.230;2023-02-28T10:27:22;11.63;;;6.53;;
27412;SDS011;14871;52.702;5.230;2023-02-28T10:29:54;10.30;;;6.13;;
27412;SDS011;14871;52.702;5.230;2023-02-28T10:32:23;8.07;;;5.38;;
27412;SDS011;14871;52.702;5.230;2023-02-28T10:35:00;6.32;;;5.00;;
27412;SDS011;14871;52.702;5.230;2023-02-28T10:37:39;7.95;;;4.82;;
27412;SDS011;14871;52.702;5.230;2023-02-28T10:40:07;6.53;;;4.15;;
27412;SDS011;14871;52.702;5.230;2023-02-28T10:43:11;6.40;;;4.43;;
27412;SDS011;14871;52.702;5.230;2023-02-28T10:48:39;7.43;;;4.47;;
27412;SDS011;14871;52.702;5.230;2023-02-28T10:51:16;7.78;;;4.53;;
27412;SDS011;14871;52.702;5.230;2023-02-28T10:53:50;7.28;;;5.35;;
27412;SDS011;14871;52.702;5.230;2023-02-28T10:56:18;8.07;;;5.13;;
27412;SDS011;14871;52.702;5.230;2023-02-28T11:01:46;6.28;;;4.57;;
27412;SDS011;14871;52.702;5.230;2023-02-28T11:07:04;6.75;;;4.65;;
27412;SDS011;14871;52.702;5.230;2023-02-28T11:09:48;7.63;;;4.25;;
27412;SDS011;14871;52.702;5.230;2023-02-28T11:12:26;7.97;;;4.65;;
27412;SDS011;14871;52.702;5.230;2023-02-28T11:15:22;8.30;;;4.72;;
27412;SDS011;14871;52.702;5.230;2023-02-28T11:18:00;6.55;;;4.30;;
27412;SDS011;14871;52.702;5.230;2023-02-28T11:20:52;7.57;;;4.43;;
27412;SDS011;14871;52.702;5.230;2023-02-28T11:23:21;5.25;;;4.03;;
27412;SDS011;14871;52.702;5.230;2023-02-28T11:25:54;6.20;;;3.63;;
27412;SDS011;14871;52.702;5.230;2023-02-28T11:28:30;8.00;;;4.25;;
27412;SDS011;14871;52.702;5.230;2023-02-28T11:31:02;9.57;;;4.93;;
27412;SDS011;14871;52.702;5.230;2023-02-28T11:33:41;6.35;;;4.53;;
27412;SDS011;14871;52.702;5.230;2023-02-28T11:36:14;6.35;;;5.22;;
27412;SDS011;14871;52.702;5.230;2023-02-28T11:38:51;6.25;;;4.00;;
27412;SDS011;14871;52.702;5.230;2023-02-28T11:46:48;5.85;;;3.70;;
27412;SDS011;14871;52.702;5.230;2023-02-28T11:49:28;6.30;;;4.07;;
27412;SDS011;14871;52.702;5.230;2023-02-28T11:54:57;4.00;;;3.40;;
27412;SDS011;14871;52.702;5.230;2023-02-28T12:00:49;5.07;;;3.20;;
27412;SDS011;14871;52.702;5.230;2023-02-28T12:06:36;3.53;;;2.17;;
27412;SDS011;14871;52.702;5.230;2023-02-28T12:09:18;3.30;;;1.98;;
27412;SDS011;14871;52.702;5.230;2023-02-28T12:11:55;4.22;;;2.38;;
27412;SDS011;14871;52.702;5.230;2023-02-28T12:14:47;4.13;;;2.10;;
27412;SDS011;14871;52.702;5.230;2023-02-28T12:17:37;3.33;;;1.75;;
27412;SDS011;14871;52.702;5.230;2023-02-28T12:28:00;2.42;;;1.55;;
27412;SDS011;14871;52.702;5.230;2023-02-28T12:30:31;2.60;;;1.40;;
27412;SDS011;14871;52.702;5.230;2023-02-28T12:35:49;3.38;;;2.30;;
27412;SDS011;14871;52.702;5.230;2023-02-28T12:38:33;4.22;;;2.40;;
27412;SDS011;14871;52.702;5.230;2023-02-28T12:41:04;2.45;;;2.22;;
27412;SDS011;14871;52.702;5.230;2023-02-28T12:43:38;3.10;;;2.38;;
27412;SDS011;14871;52.702;5.230;2023-02-28T12:46:14;5.15;;;2.70;;
27412;SDS011;14871;52.702;5.230;2023-02-28T12:48:47;3.22;;;1.90;;
27412;SDS011;14871;52.702;5.230;2023-02-28T12:51:17;3.35;;;2.22;;
27412;SDS011;14871;52.702;5.230;2023-02-28T12:59:10;4.70;;;2.10;;
27412;SDS011;14871;52.702;5.230;2023-02-28T13:02:09;4.07;;;1.83;;
27412;SDS011;14871;52.702;5.230;2023-02-28T13:04:42;4.28;;;1.30;;
27412;SDS011;14871;52.702;5.230;2023-02-28T13:10:07;2.13;;;1.38;;
27412;SDS011;14871;52.702;5.230;2023-02-28T13:12:34;4.50;;;1.73;;
27412;SDS011;14871;52.702;5.230;2023-02-28T13:17:54;3.33;;;1.70;;
27412;SDS011;14871;52.702;5.230;2023-02-28T13:20:24;3.97;;;1.85;;
27412;SDS011;14871;52.702;5.230;2023-02-28T13:22:52;2.13;;;1.58;;
27412;SDS011;14871;52.702;5.230;2023-02-28T13:27:49;2.47;;;2.00;;
27412;SDS011;14871;52.702;5.230;2023-02-28T13:36:21;4.00;;;2.30;;
27412;SDS011;14871;52.702;5.230;2023-02-28T13:38:49;5.85;;;2.45;;
27412;SDS011;14871;52.702;5.230;2023-02-28T13:46:35;2.92;;;2.28;;
27412;SDS011;14871;52.702;5.230;2023-02-28T13:54:30;3.17;;;2.30;;
27412;SDS011;14871;52.702;5.230;2023-02-28T14:00:15;2.90;;;2.30;;
27412;SDS011;14871;52.702;5.230;2023-02-28T14:05:35;3.22;;;2.30;;
27412;SDS011;14871;52.702;5.230;2023-02-28T14:08:07;4.47;;;2.70;;
27412;SDS011;14871;52.702;5.230;2023-02-28T14:13:17;3.42;;;2.33;;
27412;SDS011;14871;52.702;5.230;2023-02-28T14:16:09;3.83;;;2.22;;
27412;SDS011;14871;52.702;5.230;2023-02-28T14:18:37;4.72;;;2.13;;
27412;SDS011;14871;52.702;5.230;2023-02-28T14:21:25;2.88;;;2.08;;
27412;SDS011;14871;52.702;5.230;2023-02-28T14:26:53;3.92;;;2.35;;
27412;SDS011;14871;52.702;5.230;2023-02-28T14:32:28;3.13;;;2.45;;
27412;SDS011;14871;52.702;5.230;2023-02-28T14:35:16;3.63;;;2.20;;
27412;SDS011;14871;52.702;5.230;2023-02-28T14:38:05;2.95;;;2.17;;
27412;SDS011;14871;52.702;5.230;2023-02-28T14:40:37;2.38;;;2.17;;
27412;SDS011;14871;52.702;5.230;2023-02-28T14:43:05;2.58;;;2.00;;
27412;SDS011;14871;52.702;5.230;2023-02-28T14:45:42;4.10;;;2.40;;
27412;SDS011;14871;52.702;5.230;2023-02-28T14:48:09;3.95;;;2.80;;
27412;SDS011;14871;52.702;5.230;2023-02-28T14:50:35;2.83;;;2.55;;
27412;SDS011;14871;52.702;5.230;2023-02-28T14:53:02;3.65;;;2.50;;
27412;SDS011;14871;52.702;5.230;2023-02-28T14:55:29;3.03;;;2.30;;
27412;SDS011;14871;52.702;5.230;2023-02-28T14:58:00;2.63;;;2.33;;
27412;SDS011;14871;52.702;5.230;2023-02-28T15:00:35;3.47;;;2.40;;
27412;SDS011;14871;52.702;5.230;2023-02-28T15:03:33;3.10;;;2.20;;
27412;SDS011;14871;52.702;5.230;2023-02-28T15:05:59;2.45;;;2.25;;
27412;SDS011;14871;52.702;5.230;2023-02-28T15:08:30;5.82;;;2.20;;
27412;SDS011;14871;52.702;5.230;2023-02-28T15:11:19;4.63;;;2.70;;
27412;SDS011;14871;52.702;5.230;2023-02-28T15:13:51;4.43;;;2.67;;
27412;SDS011;14871;52.702;5.230;2023-02-28T15:16:21;3.47;;;2.80;;
27412;SDS011;14871;52.702;5.230;2023-02-28T15:18:54;3.25;;;2.65;;
27412;SDS011;14871;52.702;5.230;2023-02-28T15:21:27;3.97;;;2.50;;
27412;SDS011;14871;52.702;5.230;2023-02-28T15:24:02;3.20;;;2.55;;
27412;SDS011;14871;52.702;5.230;2023-02-28T15:26:34;4.55;;;2.78;;
27412;SDS011;14871;52.702;5.230;2023-02-28T15:29:15;4.30;;;2.65;;
27412;SDS011;14871;52.702;5.230;2023-02-28T15:31:51;5.50;;;3.00;;
27412;SDS011;14871;52.702;5.230;2023-02-28T15:34:33;4.03;;;2.70;;
27412;SDS011;14871;52.702;5.230;2023-02-28T15:36:59;4.15;;;2.97;;
27412;SDS011;14871;52.702;5.230;2023-02-28T15:39:25;3.80;;;3.13;;
27412;SDS011;14871;52.702;5.230;2023-02-28T15:42:12;3.70;;;2.60;;
27412;SDS011;14871;52.702;5.230;2023-02-28T15:44:47;4.82;;;3.83;;
27412;SDS011;14871;52.702;5.230;2023-02-28T15:49:53;5.03;;;3.03;;
27412;SDS011;14871;52.702;5.230;2023-02-28T15:55:20;5.18;;;3.40;;
27412;SDS011;14871;52.702;5.230;2023-02-28T15:57:48;5.68;;;3.55;;
27412;SDS011;14871;52.702;5.230;2023-02-28T16:00:22;3.63;;;2.97;;
27412;SDS011;14871;52.702;5.230;2023-02-28T16:02:49;5.05;;;3.05;;
27412;SDS011;14871;52.702;5.230;2023-02-28T16:05:27;4.85;;;2.80;;
27412;SDS011;14871;52.702;5.230;2023-02-28T16:07:58;6.72;;;4.00;;
27412;SDS011;14871;52.702;5.230;2023-02-28T16:10:26;5.15;;;3.22;;
27412;SDS011;14871;52.702;5.230;2023-02-28T16:12:54;4.57;;;3.10;;
27412;SDS011;14871;52.702;5.230;2023-02-28T16:15:26;4.55;;;2.90;;
27412;SDS011;14871;52.702;5.230;2023-02-28T16:17:53;3.70;;;2.80;;
27412;SDS011;14871;52.702;5.230;2023-02-28T16:20:24;4.20;;;3.45;;
27412;SDS011;14871;52.702;5.230;2023-02-28T16:22:51;5.32;;;2.92;;
27412;SDS011;14871;52.702;5.230;2023-02-28T16:25:19;4.82;;;3.00;;
27412;SDS011;14871;52.702;5.230;2023-02-28T16:27:52;3.22;;;2.75;;
27412;SDS011;14871;52.702;5.230;2023-02-28T16:30:20;4.60;;;3.05;;
27412;SDS011;14871;52.702;5.230;2023-02-28T16:32:48;3.65;;;2.97;;
27412;SDS011;14871;52.702;5.230;2023-02-28T16:35:14;4.22;;;3.08;;
27412;SDS011;14871;52.702;5.230;2023-02-28T16:37:40;4.30;;;3.10;;
27412;SDS011;14871;52.702;5.230;2023-02-28T16:40:06;4.43;;;2.65;;
27412;SDS011;14871;52.702;5.230;2023-02-28T16:42:43;6.57;;;3.10;;
27412;SDS011;14871;52.702;5.230;2023-02-28T16:45:14;3.17;;;2.60;;
27412;SDS011;14871;52.702;5.230;2023-02-28T16:47:48;5.03;;;3.10;;
27412;SDS011;14871;52.702;5.230;2023-02-28T16:50:15;4.25;;;3.17;;
27412;SDS011;14871;52.702;5.230;2023-02-28T16:52:42;4.72;;;3.40;;
27412;SDS011;14871;52.702;5.230;2023-02-28T16:55:08;5.78;;;3.63;;
27412;SDS011;14871;52.702;5.230;2023-02-28T16:57:34;5.50;;;3.35;;
27412;SDS011;14871;52.702;5.230;2023-02-28T16:59:59;7.15;;;4.10;;
27412;SDS011;14871;52.702;5.230;2023-02-28T17:02:25;5.07;;;3.88;;
27412;SDS011;14871;52.702;5.230;2023-02-28T17:04:51;4.10;;;3.67;;
27412;SDS011;14871;52.702;5.230;2023-02-28T17:07:16;6.35;;;3.85;;
27412;SDS011;14871;52.702;5.230;2023-02-28T17:09:42;6.82;;;3.97;;
27412;SDS011;14871;52.702;5.230;2023-02-28T17:12:09;6.50;;;3.95;;
27412;SDS011;14871;52.702;5.230;2023-02-28T17:14:37;6.03;;;4.25;;